createdAt,value
2018-11-22T00:01:06.335Z,3.60
2018-11-22T00:03:34.588Z,3.60
2018-11-22T00:06:02.810Z,3.60
2018-11-22T00:08:31.055Z,3.60
2018-11-22T00:10:59.297Z,3.60
2018-11-22T00:13:27.527Z,3.70
2018-11-22T00:15:55.758Z,3.70
2018-11-22T00:18:23.997Z,3.70
2018-11-22T00:20:52.228Z,3.60
2018-11-22T00:23:20.472Z,3.70
2018-11-22T00:25:48.709Z,3.60
2018-11-22T00:28:16.966Z,3.60
2018-11-22T00:30:45.218Z,3.70
2018-11-22T00:33:13.474Z,3.60
2018-11-22T00:35:41.766Z,3.60
2018-11-22T00:38:09.968Z,3.70
2018-11-22T00:40:38.172Z,3.70
2018-11-22T00:43:06.393Z,3.70
2018-11-22T00:45:34.604Z,3.70
2018-11-22T00:48:03.368Z,3.70
2018-11-22T00:50:31.586Z,3.70
2018-11-22T00:52:59.803Z,3.60
2018-11-22T00:55:28.193Z,3.70
2018-11-22T00:57:56.866Z,3.60
2018-11-22T01:00:26.883Z,3.60
2018-11-22T01:02:55.147Z,3.60
2018-11-22T01:05:24.360Z,3.70
2018-11-22T01:07:52.663Z,3.60
2018-11-22T01:10:25.230Z,3.50
2018-11-22T01:12:55.122Z,3.60
2018-11-22T01:15:23.330Z,3.40
2018-11-22T01:17:51.533Z,3.40
2018-11-22T01:20:21.031Z,3.40
2018-11-22T01:22:50.206Z,3.50
2018-11-22T01:25:19.330Z,3.50
2018-11-22T01:27:47.553Z,3.60
2018-11-22T01:30:19.966Z,3.50
2018-11-22T01:32:49.262Z,3.50
2018-11-22T01:35:18.467Z,3.50
2018-11-22T01:37:46.706Z,3.40
2018-11-22T01:40:18.803Z,3.40
2018-11-22T01:42:47.003Z,3.50
2018-11-22T01:45:16.702Z,3.40
2018-11-22T01:47:44.955Z,3.40
2018-11-22T01:50:14.397Z,3.50
2018-11-22T01:52:42.917Z,3.50
2018-11-22T01:55:12.508Z,3.50
2018-11-22T01:57:41.408Z,3.40
2018-11-22T02:00:14.692Z,3.50
2018-11-22T02:02:43.021Z,3.50
2018-11-22T02:05:12.940Z,3.60
2018-11-22T02:07:41.326Z,3.60
2018-11-22T02:10:11.580Z,3.60
2018-11-22T02:12:39.942Z,3.60
2018-11-22T02:15:10.504Z,3.70
2018-11-22T02:17:38.740Z,3.60
2018-11-22T02:20:09.745Z,3.40
2018-11-22T02:22:37.991Z,3.50
2018-11-22T02:25:07.594Z,3.50
2018-11-22T02:27:35.861Z,3.50
2018-11-22T02:30:05.110Z,3.50
2018-11-22T02:32:33.387Z,3.60
2018-11-22T02:35:01.674Z,3.60
2018-11-22T02:37:29.995Z,3.60
2018-11-22T02:39:58.224Z,3.50
2018-11-22T02:42:26.448Z,3.50
2018-11-22T02:44:54.674Z,3.60
2018-11-22T02:47:22.906Z,3.50
2018-11-22T02:49:51.140Z,3.50
2018-11-22T02:52:19.410Z,3.60
2018-11-22T02:54:47.724Z,3.60
2018-11-22T02:57:16.254Z,3.60
2018-11-22T02:59:44.511Z,3.50
2018-11-22T03:02:12.728Z,3.50
2018-11-22T03:04:41.018Z,3.50
2018-11-22T03:07:09.484Z,3.50
2018-11-22T03:09:37.731Z,3.50
2018-11-22T03:12:06.126Z,3.50
2018-11-22T03:14:34.600Z,3.60
2018-11-22T03:17:02.843Z,3.60
2018-11-22T03:19:31.063Z,3.50
2018-11-22T03:21:59.271Z,3.50
2018-11-22T03:24:27.480Z,3.60
2018-11-22T03:26:55.812Z,3.70
2018-11-22T03:29:24.031Z,3.60
2018-11-22T03:31:52.329Z,3.50
2018-11-22T03:34:20.584Z,3.50
2018-11-22T03:36:48.818Z,3.50
2018-11-22T03:39:17.032Z,3.50
2018-11-22T03:41:45.242Z,3.40
2018-11-22T03:44:13.671Z,3.40
2018-11-22T03:46:41.920Z,3.40
2018-11-22T03:49:10.156Z,3.50
2018-11-22T03:51:38.410Z,3.50
2018-11-22T03:54:06.629Z,3.50
2018-11-22T03:56:34.845Z,3.50
2018-11-22T03:59:03.060Z,3.40
2018-11-22T04:01:31.299Z,3.40
2018-11-22T04:03:59.873Z,3.50
2018-11-22T04:06:30.515Z,3.50
2018-11-22T04:08:59.125Z,3.50
2018-11-22T04:11:27.926Z,3.50
2018-11-22T04:13:57.167Z,3.50
2018-11-22T04:16:25.395Z,3.40
2018-11-22T04:18:53.673Z,3.40
2018-11-22T04:21:21.963Z,3.30
2018-11-22T04:23:50.200Z,3.30
2018-11-22T04:26:24.034Z,3.30
2018-11-22T04:28:46.776Z,3.20
2018-11-22T04:31:15.014Z,3.20
2018-11-22T04:33:43.517Z,3.20
2018-11-22T04:36:11.745Z,3.30
2018-11-22T04:38:39.951Z,3.40
2018-11-22T04:41:08.184Z,3.50
2018-11-22T04:43:36.511Z,3.60
2018-11-22T04:46:04.814Z,3.50
2018-11-22T04:48:33.092Z,3.40
2018-11-22T04:51:01.300Z,3.40
2018-11-22T04:53:29.535Z,3.50
2018-11-22T04:55:57.791Z,3.50
2018-11-22T04:58:26.115Z,3.40
2018-11-22T05:00:54.387Z,3.30
2018-11-22T05:03:22.679Z,3.30
2018-11-22T05:05:50.960Z,3.30
2018-11-22T05:08:19.199Z,3.30
2018-11-22T05:10:47.402Z,3.40
2018-11-22T05:13:17.129Z,3.40
2018-11-22T05:15:45.350Z,3.30
2018-11-22T05:18:13.582Z,3.30
2018-11-22T05:20:41.844Z,3.40
2018-11-22T05:23:10.073Z,3.40
2018-11-22T05:25:38.664Z,3.40
2018-11-22T05:28:06.942Z,3.40
2018-11-22T05:30:35.186Z,3.50
2018-11-22T05:33:03.443Z,3.40
2018-11-22T05:35:31.759Z,3.40
2018-11-22T05:38:00.061Z,3.30
2018-11-22T05:40:28.495Z,3.40
2018-11-22T05:42:57.522Z,3.40
2018-11-22T05:45:32.346Z,3.40
2018-11-22T05:48:00.584Z,3.30
2018-11-22T05:50:29.939Z,3.20
2018-11-22T05:52:59.699Z,3.20
2018-11-22T05:55:27.936Z,3.30
2018-11-22T05:57:56.225Z,3.30
2018-11-22T06:00:28.872Z,3.30
2018-11-22T06:02:57.993Z,3.30
2018-11-22T06:05:28.321Z,3.40
2018-11-22T06:07:56.585Z,3.40
2018-11-22T06:10:28.453Z,3.40
2018-11-22T06:12:57.683Z,3.40
2018-11-22T06:15:25.951Z,3.30
2018-11-22T06:17:55.275Z,3.30
2018-11-22T06:20:25.082Z,3.30
2018-11-22T06:22:53.826Z,3.20
2018-11-22T06:25:22.192Z,3.20
2018-11-22T06:27:50.916Z,3.20
2018-11-22T06:30:23.717Z,3.30
2018-11-22T06:32:53.284Z,3.30
2018-11-22T06:35:21.885Z,3.30
2018-11-22T06:37:50.091Z,3.30
2018-11-22T06:40:18.564Z,3.30
2018-11-22T06:42:47.974Z,3.40
2018-11-22T06:45:26.225Z,3.40
2018-11-22T06:47:54.480Z,3.30
2018-11-22T06:50:23.457Z,3.40
2018-11-22T06:52:51.747Z,3.30
2018-11-22T06:55:21.600Z,3.30
2018-11-22T06:57:49.899Z,3.30
2018-11-22T07:00:19.533Z,3.20
2018-11-22T07:02:48.456Z,3.30
2018-11-22T07:05:20.320Z,3.30
2018-11-22T07:07:48.621Z,3.40
2018-11-22T07:10:17.620Z,3.40
2018-11-22T07:12:46.000Z,3.40
2018-11-22T07:15:15.096Z,3.40
2018-11-22T07:17:43.343Z,3.40
2018-11-22T07:20:14.157Z,3.50
2018-11-22T07:22:43.043Z,3.40
2018-11-22T07:25:14.077Z,3.40
2018-11-22T07:27:42.504Z,3.40
2018-11-22T07:30:18.161Z,3.50
2018-11-22T07:32:46.756Z,3.50
2018-11-22T07:35:16.082Z,3.50
2018-11-22T07:37:44.898Z,3.50
2018-11-22T12:17:46.708Z,6.00
2018-11-22T12:20:15.579Z,5.90
2018-11-22T12:22:45.076Z,5.70
2018-11-22T12:25:14.847Z,5.60
2018-11-22T12:27:43.875Z,5.70
2018-11-22T12:30:14.734Z,5.80
2018-11-22T12:32:52.180Z,5.90
2018-11-22T12:35:25.734Z,5.80
2018-11-22T12:37:59.381Z,5.90
2018-11-22T12:40:27.589Z,6.00
2018-11-22T12:42:56.358Z,6.00
2018-11-22T12:45:25.726Z,6.10
2018-11-22T12:47:53.986Z,6.20
2018-11-22T12:50:22.231Z,6.20
2018-11-22T12:52:50.460Z,6.20
2018-11-22T12:55:18.687Z,5.90
2018-11-22T12:57:46.909Z,6.00
2018-11-22T13:00:16.472Z,5.90
2018-11-22T13:02:44.713Z,6.00
2018-11-22T13:05:14.214Z,5.90
2018-11-22T13:07:42.577Z,6.00
2018-11-22T13:10:12.607Z,6.00
2018-11-22T13:12:41.675Z,6.10
2018-11-22T13:15:11.516Z,6.10
2018-11-22T13:17:39.843Z,6.00
2018-11-22T13:20:09.844Z,6.00
2018-11-22T13:22:38.193Z,6.10
2018-11-22T13:25:08.190Z,6.00
2018-11-22T13:27:36.433Z,6.10
2018-11-22T13:30:07.570Z,6.20
2018-11-22T13:32:35.802Z,6.10
2018-11-22T13:35:04.075Z,6.00
2018-11-22T13:37:32.318Z,6.10
2018-11-22T13:40:00.604Z,6.10
2018-11-22T13:42:28.832Z,6.20
2018-11-22T13:44:57.045Z,6.10
2018-11-22T13:47:25.267Z,6.10
2018-11-22T13:49:53.462Z,6.10
2018-11-22T13:52:21.694Z,6.10
2018-11-22T13:54:50.010Z,5.90
2018-11-22T13:57:18.252Z,5.90
2018-11-22T13:59:46.445Z,5.90
2018-11-22T14:02:14.774Z,6.00
2018-11-22T14:04:42.998Z,6.00
2018-11-22T14:07:11.235Z,6.00
2018-11-22T14:09:39.511Z,5.90
2018-11-22T14:12:07.751Z,5.70
2018-11-22T14:14:35.997Z,5.60
2018-11-22T14:17:04.238Z,5.60
2018-11-22T14:19:32.483Z,5.60
2018-11-22T14:22:00.747Z,5.60
2018-11-22T14:24:29.003Z,5.60
2018-11-22T14:26:57.230Z,5.70
2018-11-22T14:29:25.454Z,5.80
2018-11-22T14:31:53.737Z,5.80
2018-11-22T14:34:21.982Z,5.60
2018-11-22T14:36:50.205Z,5.60
2018-11-22T14:39:18.554Z,5.50
2018-11-22T14:41:46.805Z,5.50
2018-11-22T14:44:15.034Z,5.40
2018-11-22T14:46:43.272Z,5.40
2018-11-22T14:49:11.476Z,5.40
2018-11-22T14:51:42.594Z,5.50
2018-11-22T14:54:10.826Z,5.50
2018-11-22T14:56:39.050Z,5.50
2018-11-22T14:59:07.325Z,5.60
2018-11-22T15:01:35.523Z,5.60
2018-11-22T15:04:03.749Z,5.60
2018-11-22T15:06:32.028Z,5.60
2018-11-22T15:09:00.350Z,5.60
2018-11-22T15:11:28.553Z,5.60
2018-11-22T15:13:57.129Z,5.50
2018-11-22T15:16:25.513Z,5.50
2018-11-22T15:18:53.942Z,5.60
2018-11-22T15:21:22.039Z,5.60
2018-11-22T15:23:50.360Z,5.60
2018-11-22T15:26:18.647Z,5.60
2018-11-22T15:28:46.893Z,5.50
2018-11-22T15:31:15.098Z,5.50
2018-11-22T15:33:43.344Z,5.50
2018-11-22T15:36:11.577Z,5.40
2018-11-22T15:38:39.913Z,5.50
2018-11-22T15:41:08.166Z,5.50
2018-11-22T15:43:36.421Z,5.50
2018-11-22T15:46:04.704Z,5.40
2018-11-22T15:48:32.994Z,5.40
2018-11-22T15:51:01.284Z,5.30
2018-11-22T15:53:29.570Z,5.20
2018-11-22T15:55:57.814Z,5.00
2018-11-22T15:58:26.134Z,5.00
2018-11-22T16:00:54.404Z,4.90
2018-11-22T16:03:22.657Z,4.90
2018-11-22T16:05:50.943Z,4.70
2018-11-22T16:08:19.222Z,4.60
2018-11-22T16:10:47.467Z,4.50
2018-11-22T16:13:15.724Z,4.40
2018-11-22T16:15:48.590Z,4.40
2018-11-22T16:18:16.838Z,4.40
2018-11-22T16:20:45.076Z,4.30
2018-11-22T16:23:13.322Z,4.30
2018-11-22T16:25:41.571Z,4.30
2018-11-22T16:28:09.843Z,4.20
2018-11-22T16:30:38.547Z,4.20
2018-11-22T16:33:06.795Z,4.10
2018-11-22T16:35:35.501Z,4.10
2018-11-22T16:38:03.790Z,4.00
2018-11-22T16:40:32.060Z,4.10
2018-11-22T16:43:01.573Z,4.10
2018-11-22T16:45:31.281Z,4.10
2018-11-22T16:48:00.815Z,4.10
2018-11-22T16:50:29.974Z,4.10
2018-11-22T16:52:58.353Z,4.20
2018-11-22T16:55:27.136Z,4.10
2018-11-22T16:57:56.379Z,4.10
2018-11-22T17:00:27.206Z,4.20
2018-11-22T17:02:57.695Z,4.20
2018-11-22T17:05:26.088Z,4.20
2018-11-22T17:07:54.371Z,4.30
2018-11-22T17:10:23.972Z,4.30
2018-11-22T17:12:53.454Z,4.20
2018-11-22T17:15:22.979Z,4.30
2018-11-22T17:17:51.636Z,4.30
2018-11-22T17:20:20.848Z,4.30
2018-11-22T17:22:49.750Z,4.30
2018-11-22T17:25:20.452Z,4.20
2018-11-22T17:27:49.740Z,4.30
2018-11-22T17:30:21.350Z,4.30
2018-11-22T17:32:49.637Z,4.30
2018-11-22T17:35:19.354Z,4.30
2018-11-22T17:37:47.625Z,4.30
2018-11-22T17:40:21.402Z,4.30
2018-11-22T17:42:49.755Z,4.30
2018-11-22T17:45:26.392Z,4.30
2018-11-22T17:47:54.727Z,4.30
2018-11-22T17:50:25.739Z,4.40
2018-11-22T17:52:53.986Z,4.50
2018-11-22T17:55:23.588Z,4.50
2018-11-22T17:57:51.910Z,4.60
2018-11-22T18:00:23.558Z,4.60
2018-11-22T18:02:52.777Z,4.60
2018-11-22T18:05:23.521Z,4.70
2018-11-22T18:07:49.382Z,4.70
2018-11-22T18:10:19.127Z,4.80
2018-11-22T18:12:48.123Z,4.80
2018-11-22T18:15:17.416Z,4.80
2018-11-22T18:17:45.801Z,4.80
2018-11-22T18:20:16.399Z,4.70
2018-11-22T18:22:45.367Z,4.70
2018-11-22T18:25:15.033Z,4.70
2018-11-22T18:27:43.258Z,4.60
2018-11-22T18:30:15.134Z,4.50
2018-11-22T18:32:44.276Z,4.30
2018-11-22T18:35:13.176Z,4.10
2018-11-22T18:37:41.385Z,3.90
2018-11-22T18:40:12.354Z,3.80
2018-11-22T18:42:40.596Z,3.70
2018-11-22T18:45:10.528Z,3.50
2018-11-22T18:47:38.995Z,3.50
2018-11-22T18:50:15.691Z,3.40
2018-11-22T18:52:41.370Z,3.30
2018-11-22T18:55:10.150Z,3.30
2018-11-22T18:57:38.451Z,3.30
2018-11-22T19:00:12.097Z,3.20
2018-11-22T19:02:40.716Z,3.10
2018-11-22T19:05:09.960Z,3.10
2018-11-22T19:07:38.390Z,3.00
2018-11-22T19:10:13.075Z,3.00
2018-11-22T19:12:41.826Z,3.00
2018-11-22T19:15:12.106Z,2.90
2018-11-22T19:17:40.826Z,2.90
2018-11-22T19:20:12.008Z,2.90
2018-11-22T19:22:40.589Z,2.80
2018-11-22T19:25:09.186Z,2.80
2018-11-22T19:27:37.427Z,2.80
2018-11-22T19:30:09.020Z,2.80
2018-11-22T19:32:37.266Z,2.70
2018-11-22T19:35:07.364Z,2.70
2018-11-22T19:37:35.607Z,2.60
2018-11-22T19:40:04.752Z,2.60
2018-11-22T19:42:33.030Z,2.50
2018-11-22T19:45:01.243Z,2.50
2018-11-22T19:47:29.512Z,2.50
2018-11-22T19:49:57.806Z,2.50
2018-11-22T19:52:26.082Z,2.50
2018-11-22T19:54:54.319Z,2.40
2018-11-22T19:57:22.611Z,2.40
2018-11-22T19:59:50.845Z,2.30
2018-11-22T20:02:19.088Z,2.30
2018-11-22T20:04:47.297Z,2.20
2018-11-22T20:07:15.565Z,2.10
2018-11-22T20:09:43.906Z,2.00
2018-11-22T20:12:12.133Z,2.00
2018-11-22T20:14:40.353Z,2.10
2018-11-22T20:17:08.611Z,2.10
2018-11-22T20:19:36.900Z,2.00
2018-11-22T20:22:05.135Z,1.90
2018-11-22T20:24:33.351Z,1.80
2018-11-22T20:27:01.559Z,1.80
2018-11-22T20:29:29.801Z,1.80
2018-11-22T20:31:58.221Z,1.70
2018-11-22T20:34:26.517Z,1.60
2018-11-22T20:36:54.775Z,1.50
2018-11-22T20:39:22.955Z,1.40
2018-11-22T20:41:51.228Z,1.30
2018-11-22T20:44:19.469Z,1.30
2018-11-22T20:46:48.274Z,1.20
2018-11-22T20:49:17.129Z,1.20
2018-11-22T20:51:45.358Z,1.10
2018-11-22T20:54:13.610Z,1.00
2018-11-22T20:56:41.891Z,0.90
2018-11-22T20:59:10.172Z,0.90
2018-11-22T21:01:39.074Z,0.80
2018-11-22T21:04:07.476Z,0.80
2018-11-22T21:06:35.690Z,0.80
2018-11-22T21:09:04.890Z,0.70
2018-11-22T21:11:33.071Z,0.60
2018-11-22T21:14:01.298Z,0.60
2018-11-22T21:16:29.518Z,0.60
2018-11-22T21:18:57.771Z,0.50
2018-11-22T21:21:26.014Z,0.40
2018-11-22T21:23:54.234Z,0.50
2018-11-22T21:26:22.472Z,0.50
2018-11-22T21:28:50.713Z,0.40
2018-11-22T21:31:18.967Z,0.40
2018-11-22T21:33:47.202Z,0.30
2018-11-22T21:36:15.503Z,0.30
2018-11-22T21:38:43.725Z,0.40
2018-11-22T21:41:12.033Z,0.40
2018-11-22T21:43:40.279Z,0.30
2018-11-22T21:46:08.482Z,0.30
2018-11-22T21:48:36.695Z,0.20
2018-11-22T21:51:05.279Z,0.20
2018-11-22T21:53:33.490Z,0.20
2018-11-22T21:56:01.712Z,0.20
2018-11-22T21:58:29.989Z,0.20
2018-11-22T22:00:58.212Z,0.10
2018-11-22T22:03:26.483Z,0.20
2018-11-22T22:05:54.787Z,0.20
2018-11-22T22:08:23.004Z,0.10
2018-11-22T22:10:51.287Z,0.20
2018-11-22T22:13:19.510Z,0.10
2018-11-22T22:15:47.716Z,0.20
2018-11-22T22:18:21.108Z,0.20
2018-11-22T22:20:44.275Z,0.20
2018-11-22T22:23:13.547Z,0.20
2018-11-22T22:25:40.714Z,0.20
2018-11-22T22:28:09.589Z,0.10
2018-11-22T22:30:37.853Z,0.10
2018-11-22T22:33:06.786Z,0.10
2018-11-22T22:35:35.023Z,0.10
2018-11-22T22:38:03.288Z,0.10
2018-11-22T22:40:32.275Z,0.10
2018-11-22T22:43:00.660Z,0.20
2018-11-22T22:45:29.935Z,0.10
2018-11-22T22:47:58.143Z,0.20
2018-11-22T22:50:27.595Z,0.20
2018-11-22T22:52:57.006Z,0.20
2018-11-22T22:55:25.343Z,0.00
2018-11-22T22:57:53.699Z,-0.10
2018-11-22T23:00:28.269Z,-0.20
2018-11-22T23:02:58.922Z,-0.20
2018-11-22T23:05:27.764Z,-0.30
2018-11-22T23:07:56.075Z,-0.30
2018-11-22T23:10:25.355Z,-0.30
2018-11-22T23:12:54.310Z,-0.30
2018-11-22T23:15:22.810Z,-0.40
2018-11-22T23:17:51.014Z,-0.40
2018-11-22T23:20:20.670Z,-0.40
2018-11-22T23:22:49.381Z,-0.40
2018-11-22T23:25:18.783Z,-0.50
2018-11-22T23:27:47.006Z,-0.40
2018-11-22T23:30:16.841Z,-0.50
2018-11-22T23:32:46.557Z,-0.60
2018-11-22T23:35:14.802Z,-0.60
2018-11-22T23:37:43.361Z,-0.70
2018-11-22T23:40:14.221Z,-0.70
2018-11-22T23:42:42.586Z,-0.70
2018-11-22T23:45:12.187Z,-0.70
2018-11-22T23:47:40.964Z,-0.70
2018-11-22T23:50:13.448Z,-0.60
2018-11-22T23:52:42.397Z,-0.70
2018-11-22T23:55:10.618Z,-0.60
2018-11-22T23:57:39.299Z,-0.60
